Airfield :
LOGIN :

Register | Disclaimer

   EN    FR    IT 

 










Legend :    VFR   Marginal VFR   IFR   Intensive IFR   Very Intensive IFR
Visi :
Ceiling :
>= 8 km
>= 3000ft
5 to 8 km
1000 to 3000 ft
1500m to 5 km
500 to 1000 ft
800 to 1500m
200 to 500 ft
< 800m
< 200 ft
Symbols :   Thunderstorms  Fog  Heavy snow  Heavy precipitations  Wind > 20 kt
SIGMETs :     Misc.  Thunderstorms  Icing  Turbulence  Mountain Waves  Volcanic Ashes






- Airport Elevation : 319 ft


EIME - Casement Air Base

CURRENT METAR :
  • 281530Z 32003KT 9999 FEW018 SCT050 BKN250 25/12 Q1029

EXPIRED METARs :
  • 281500Z 03006KT 9999 FEW018 BKN050 BKN250 25/13 Q1029
  • 281430Z 05008KT 9999 FEW018 SCT050 BKN250 24/13 Q1029
  • 281400Z 06008KT 9999 FEW018 SCT050 BKN250 24/13 Q1030
  • 281330Z 05008KT 9999 FEW018 BKN250 23/12 Q1030
  • 281300Z 06008KT 9999 FEW018 BKN250 22/12 Q1030

TAF TAF EIME
Valid from the 28 at 15:00 until the 29 at 00:00 UTC


281400Z 2815/2824 06008KT 9999 FEW020
BECMG 2815/2817 14007KT



MET'MAP, your aeronautical weather chart ! - Copyright ORBIFLY December 2007 - Disclaimer

ORBIFLY MET'MAP TEAM :

Programming & Development : Alexandra Zaïnal
Concept & original design : Baudouin d'Aumeries
Assistance for programming : Marc-Olivier Méhu
Technical & hardware support : Manuel Goepfert

Contact : metmap@orbifly.com




SOURCES & CREDITS :

   NOAA